createdAt,value
2022-08-10T00:00:04.525Z,65.89
2022-08-10T00:02:56.625Z,66.14
2022-08-10T00:05:53.133Z,66.03
2022-08-10T00:08:42.528Z,66.25
2022-08-10T00:11:31.080Z,65.72
2022-08-10T00:14:19.729Z,65.80
2022-08-10T00:17:08.176Z,65.77
2022-08-10T00:20:03.116Z,65.54
2022-08-10T00:22:57.723Z,66.05
2022-08-10T00:25:46.327Z,66.05
2022-08-10T00:28:34.902Z,65.45
2022-08-10T00:31:23.369Z,65.61
2022-08-10T00:34:11.813Z,65.50
2022-08-10T00:37:01.010Z,65.36
2022-08-10T00:39:49.630Z,65.46
2022-08-10T00:42:38.114Z,65.34
2022-08-10T00:45:26.248Z,65.37
2022-08-10T00:48:14.450Z,65.50
2022-08-10T00:51:02.765Z,65.96
2022-08-10T00:53:51.293Z,65.67
2022-08-10T00:57:17.110Z,65.74
2022-08-10T00:59:58.575Z,65.72
2022-08-10T01:02:48.418Z,65.61
2022-08-10T01:06:00.565Z,65.64
2022-08-10T01:09:01.785Z,65.38
2022-08-10T01:12:38.065Z,64.83
2022-08-10T01:15:32.677Z,65.41
2022-08-10T01:18:37.642Z,65.79
2022-08-10T01:21:53.227Z,65.67
2022-08-10T01:24:53.515Z,65.52
2022-08-10T01:28:21.454Z,66.18
2022-08-10T01:31:16.825Z,66.73
2022-08-10T01:34:19.387Z,66.28
2022-08-10T01:37:14.993Z,66.58
2022-08-10T01:40:07.276Z,67.60
2022-08-10T01:43:07.974Z,67.24
2022-08-10T01:46:00.021Z,67.27
2022-08-10T01:48:54.697Z,67.54
2022-08-10T01:51:56.934Z,67.54
2022-08-10T01:54:51.287Z,68.19
2022-08-10T01:57:43.604Z,68.00
2022-08-10T02:00:36.860Z,67.71
2022-08-10T02:03:26.237Z,67.86
2022-08-10T02:06:16.397Z,68.40
2022-08-10T02:09:07.826Z,68.60
2022-08-10T02:12:07.066Z,69.07
2022-08-10T02:19:51.813Z,68.57
2022-08-10T02:22:41.393Z,68.69
2022-08-10T02:25:42.486Z,68.78
2022-08-10T02:28:34.481Z,68.84
2022-08-10T02:31:25.153Z,69.04
2022-08-10T02:34:16.513Z,69.54
2022-08-10T02:37:10.786Z,69.24
2022-08-10T02:39:59.535Z,69.10
2022-08-10T02:45:18.780Z,69.12
2022-08-10T02:46:18.249Z,69.28
2022-08-10T02:49:21.710Z,69.52
2022-08-10T02:52:22.137Z,69.77
2022-08-10T02:55:41.655Z,69.38
2022-08-10T02:58:41.019Z,70.06
2022-08-10T03:01:34.353Z,69.34
2022-08-10T03:04:55.542Z,69.53
2022-08-10T03:07:53.547Z,69.54
2022-08-10T03:10:44.294Z,69.92
2022-08-10T03:13:33.985Z,70.56
2022-08-10T03:16:23.534Z,70.17
2022-08-10T03:20:35.846Z,70.27
2022-08-10T03:22:21.356Z,70.26
2022-08-10T03:25:12.333Z,70.58
2022-08-10T03:28:01.441Z,70.30
2022-08-10T03:30:50.376Z,70.95
2022-08-10T03:33:41.554Z,70.91
2022-08-10T03:36:42.691Z,71.16
2022-08-10T03:39:33.499Z,71.56
2022-08-10T03:42:24.478Z,71.93
2022-08-10T03:45:13.339Z,71.78
2022-08-10T03:48:04.322Z,71.81
2022-08-10T03:50:52.975Z,71.92
2022-08-10T03:54:03.588Z,71.84
2022-08-10T03:56:50.415Z,72.29
2022-08-10T03:59:39.233Z,72.34
2022-08-10T04:02:46.582Z,72.16
2022-08-10T04:05:38.594Z,72.33
2022-08-10T04:08:27.601Z,72.67
2022-08-10T04:11:16.033Z,72.96
2022-08-10T04:14:35.591Z,73.50
2022-08-10T04:17:18.384Z,73.17
2022-08-10T04:20:34.193Z,73.17
2022-08-10T04:23:27.656Z,73.23
2022-08-10T04:26:17.006Z,73.20
2022-08-10T04:29:05.872Z,73.62
2022-08-10T04:31:54.394Z,74.03
2022-08-10T04:34:44.980Z,73.88
2022-08-10T04:37:35.005Z,73.54
2022-08-10T04:40:29.332Z,73.72
2022-08-10T04:43:19.341Z,74.23
2022-08-10T04:46:42.576Z,73.74
2022-08-10T04:49:54.243Z,73.96
2022-08-10T04:52:25.269Z,74.27
2022-08-10T04:55:13.581Z,73.73
2022-08-10T04:58:01.731Z,74.10
2022-08-10T05:00:50.235Z,74.06
2022-08-10T05:04:36.186Z,73.71
2022-08-10T05:06:47.257Z,73.70
2022-08-10T05:10:03.614Z,73.96
2022-08-10T05:12:43.890Z,74.38
2022-08-10T05:15:32.398Z,73.33
2022-08-10T05:18:20.782Z,73.73
2022-08-10T05:21:09.178Z,73.71
2022-08-10T05:23:57.447Z,73.70
2022-08-10T05:27:00.297Z,73.05
2022-08-10T05:30:01.504Z,73.28
2022-08-10T05:32:58.951Z,72.87
2022-08-10T05:35:56.916Z,73.32
2022-08-10T05:38:47.355Z,73.17
2022-08-10T05:41:41.365Z,73.14
2022-08-10T05:44:34.907Z,73.39
2022-08-10T05:47:23.704Z,73.96
2022-08-10T05:50:14.075Z,73.59
2022-08-10T05:53:59.233Z,74.00
2022-08-10T05:56:11.420Z,73.24
2022-08-10T05:58:59.559Z,72.75
2022-08-10T06:02:33.899Z,71.75
2022-08-10T06:05:30.753Z,71.39
2022-08-10T06:08:26.884Z,70.75
2022-08-10T06:12:27.009Z,71.22
2022-08-10T06:14:43.668Z,71.40
2022-08-10T06:17:41.639Z,71.14
2022-08-10T06:20:35.919Z,71.33
2022-08-10T06:23:28.635Z,70.78
2022-08-10T06:26:21.102Z,70.55
2022-08-10T06:29:15.349Z,71.22
2022-08-10T06:32:05.522Z,70.89
2022-08-10T06:35:11.347Z,70.81
2022-08-10T06:38:03.447Z,70.05
2022-08-10T06:40:57.455Z,69.33
2022-08-10T06:43:57.760Z,70.02
2022-08-10T06:46:51.277Z,69.58
2022-08-10T06:49:39.591Z,68.37
2022-08-10T06:52:31.032Z,67.80
2022-08-10T06:55:39.821Z,68.35
2022-08-10T06:58:36.414Z,67.39
2022-08-10T07:01:34.695Z,67.40
2022-08-10T07:04:32.291Z,67.65
2022-08-10T07:07:27.852Z,67.58
2022-08-10T07:10:20.405Z,66.97
2022-08-10T07:13:10.119Z,66.97
2022-08-10T07:16:00.796Z,67.00
2022-08-10T07:18:49.698Z,66.30
2022-08-10T07:24:34.765Z,66.31
2022-08-10T07:27:25.188Z,65.09
2022-08-10T07:30:14.192Z,64.54
2022-08-10T07:33:04.019Z,65.59
2022-08-10T07:35:52.654Z,64.44
2022-08-10T07:38:41.438Z,64.51
2022-08-10T07:41:32.069Z,63.19
2022-08-10T07:44:21.444Z,64.10
2022-08-10T07:47:53.906Z,63.71
2022-08-10T07:50:35.269Z,62.78
2022-08-10T07:53:28.560Z,62.15
2022-08-10T07:56:45.449Z,63.82
2022-08-10T07:59:38.621Z,62.80
2022-08-10T08:02:34.070Z,62.45
2022-08-10T08:05:59.232Z,62.34
2022-08-10T08:08:40.028Z,62.08
2022-08-10T08:11:29.634Z,62.47
2022-08-10T08:14:22.011Z,61.23
2022-08-10T08:17:12.493Z,61.09
2022-08-10T08:20:04.794Z,60.45
2022-08-10T08:24:10.410Z,60.98
2022-08-10T08:26:24.670Z,60.13
2022-08-10T08:29:19.573Z,60.13
2022-08-10T08:32:08.740Z,60.01
2022-08-10T08:35:08.263Z,59.63
2022-08-10T08:38:31.370Z,58.99
2022-08-10T08:41:47.592Z,58.65
2022-08-10T08:44:59.788Z,57.64
2022-08-10T08:48:24.656Z,57.76
2022-08-10T08:52:09.647Z,57.12
2022-08-10T08:54:59.866Z,57.12
2022-08-10T08:58:06.030Z,54.11
2022-08-10T09:01:38.320Z,53.19
2022-08-10T09:05:06.828Z,54.63
2022-08-10T09:08:41.976Z,54.19
2022-08-10T09:12:00.317Z,53.57
2022-08-10T09:15:06.188Z,52.69
2022-08-10T09:18:06.211Z,52.06
2022-08-10T09:21:12.248Z,52.49
2022-08-10T09:24:32.160Z,51.36
2022-08-10T09:27:45.586Z,51.42
2022-08-10T09:31:21.525Z,51.30
2022-08-10T09:36:21.067Z,50.96
2022-08-10T09:38:03.208Z,50.37
2022-08-10T09:41:32.760Z,50.71
2022-08-10T09:45:07.083Z,51.09
2022-08-10T09:48:39.695Z,52.03
2022-08-10T09:52:27.867Z,50.50
2022-08-10T09:56:17.822Z,50.18
2022-08-10T09:59:26.882Z,51.00
2022-08-10T10:02:52.718Z,49.59
2022-08-10T10:06:04.432Z,49.80
2022-08-10T10:09:10.107Z,50.09
2022-08-10T10:12:36.515Z,50.56
2022-08-10T10:16:02.037Z,50.43
2022-08-10T10:19:04.907Z,49.71
2022-08-10T10:22:11.808Z,48.87
2022-08-10T10:25:25.487Z,50.10
2022-08-10T10:29:24.783Z,50.07
2022-08-10T10:32:36.911Z,48.44
2022-08-10T10:35:40.595Z,48.62
2022-08-10T10:38:38.246Z,47.98
2022-08-10T10:42:14.615Z,48.01
2022-08-10T10:45:51.009Z,48.09
2022-08-10T10:48:54.656Z,47.43
2022-08-10T10:51:53.786Z,47.66
2022-08-10T10:55:07.324Z,47.11
2022-08-10T10:58:22.461Z,46.81
2022-08-10T11:01:22.182Z,47.25
2022-08-10T11:05:02.419Z,47.21
2022-08-10T11:08:01.172Z,46.72
2022-08-10T11:12:00.044Z,46.52
2022-08-10T11:14:38.498Z,45.74
2022-08-10T11:17:34.726Z,45.53
2022-08-10T11:20:49.920Z,45.71
2022-08-10T11:24:42.483Z,45.47
2022-08-10T11:27:21.909Z,46.44
2022-08-10T11:30:18.964Z,44.80
2022-08-10T11:33:32.777Z,45.47
2022-08-10T11:36:35.555Z,44.44
2022-08-10T11:40:13.190Z,44.73
2022-08-10T11:43:22.723Z,45.66
2022-08-10T11:46:33.195Z,44.85
2022-08-10T11:49:46.888Z,46.54
2022-08-10T11:52:49.442Z,45.82
2022-08-10T11:55:37.631Z,44.58
2022-08-10T11:58:50.932Z,45.08
2022-08-10T12:01:39.750Z,45.78
2022-08-10T12:04:29.212Z,43.99
2022-08-10T12:10:06.143Z,44.43
2022-08-10T12:10:28.479Z,43.37
2022-08-10T12:14:19.631Z,44.03
2022-08-10T12:17:15.375Z,42.68
2022-08-10T12:20:37.842Z,44.21
2022-08-10T12:24:03.314Z,42.80
2022-08-10T12:27:03.721Z,44.77
2022-08-10T12:30:04.779Z,43.90
2022-08-10T12:33:03.723Z,43.40
2022-08-10T12:36:18.636Z,42.50
2022-08-10T12:39:17.970Z,43.30
2022-08-10T12:42:38.643Z,43.60
2022-08-10T12:46:01.925Z,42.86
2022-08-10T12:48:56.380Z,42.81
2022-08-10T12:52:07.656Z,45.42
2022-08-10T12:54:59.674Z,44.09
2022-08-10T12:57:56.727Z,44.16
2022-08-10T13:01:12.749Z,43.13
2022-08-10T13:04:22.915Z,43.71
2022-08-10T13:07:11.220Z,43.88
2022-08-10T13:10:19.681Z,42.92
2022-08-10T13:13:08.780Z,43.60
2022-08-10T13:15:58.493Z,44.49
2022-08-10T13:18:47.331Z,42.71
2022-08-10T13:21:38.708Z,43.08
2022-08-10T13:24:36.877Z,42.48
2022-08-10T13:28:00.947Z,44.51
2022-08-10T13:30:40.444Z,43.45
2022-08-10T13:34:40.043Z,42.01
2022-08-10T13:36:40.649Z,41.93
2022-08-10T13:39:58.903Z,41.39
2022-08-10T13:42:50.097Z,43.91
2022-08-10T13:45:47.700Z,42.46
2022-08-10T13:48:40.000Z,44.00
2022-08-10T13:51:57.540Z,41.56
2022-08-10T13:54:42.914Z,42.32
2022-08-10T13:57:35.479Z,43.11
2022-08-10T14:00:41.493Z,43.53
2022-08-10T14:03:37.627Z,41.60
2022-08-10T14:06:29.828Z,41.70
2022-08-10T14:09:24.869Z,42.49
2022-08-10T14:12:14.120Z,43.18
2022-08-10T14:15:07.105Z,42.91
2022-08-10T14:17:58.327Z,42.53
2022-08-10T14:20:47.305Z,42.38
2022-08-10T14:23:41.239Z,40.70
2022-08-10T14:26:32.056Z,40.34
2022-08-10T14:29:23.825Z,41.47
2022-08-10T14:32:16.207Z,41.98
2022-08-10T14:36:20.492Z,41.21
2022-08-10T14:38:21.263Z,40.40
2022-08-10T14:42:02.942Z,40.99
2022-08-10T14:45:10.937Z,41.03
2022-08-10T14:48:23.585Z,41.17
2022-08-10T14:51:26.581Z,40.09
2022-08-10T14:54:17.455Z,40.19
2022-08-10T14:57:11.494Z,41.97
2022-08-10T15:00:24.228Z,42.75
2022-08-10T15:03:11.217Z,42.35
2022-08-10T15:06:36.985Z,42.39
2022-08-10T15:09:59.851Z,41.42
2022-08-10T15:12:50.941Z,41.18
2022-08-10T15:16:02.240Z,42.01
2022-08-10T15:18:57.964Z,41.59
2022-08-10T15:21:47.744Z,42.84
2022-08-10T15:25:00.442Z,41.99
2022-08-10T15:27:55.338Z,41.97
2022-08-10T15:30:48.080Z,42.46
2022-08-10T15:34:16.046Z,44.16
2022-08-10T15:37:39.450Z,40.88
2022-08-10T15:40:30.855Z,41.60
2022-08-10T15:43:26.592Z,41.39
2022-08-10T15:46:31.860Z,42.53
2022-08-10T15:50:05.318Z,40.54
2022-08-10T15:53:00.559Z,41.19
2022-08-10T15:55:55.549Z,40.95
2022-08-10T15:58:55.994Z,41.32
2022-08-10T16:02:04.188Z,41.52
2022-08-10T16:05:14.233Z,41.30
2022-08-10T16:08:09.281Z,40.88
2022-08-10T16:11:04.183Z,41.23
2022-08-10T16:14:01.247Z,41.46
2022-08-10T16:16:57.585Z,40.89
2022-08-10T16:19:53.166Z,40.62
2022-08-10T16:22:41.660Z,40.92
2022-08-10T16:25:51.300Z,39.97
2022-08-10T16:29:08.439Z,41.54
2022-08-10T16:31:59.813Z,40.42
2022-08-10T16:34:51.065Z,40.79
2022-08-10T16:37:56.585Z,42.14
2022-08-10T16:40:49.677Z,40.69
2022-08-10T16:43:38.798Z,40.91
2022-08-10T16:46:27.773Z,40.74
2022-08-10T16:49:18.147Z,40.57
2022-08-10T16:52:08.013Z,41.50
2022-08-10T16:55:17.028Z,41.35
2022-08-10T16:58:28.130Z,42.55
2022-08-10T17:01:23.857Z,41.58
2022-08-10T17:04:14.509Z,42.18
2022-08-10T17:07:14.284Z,42.34
2022-08-10T17:10:08.073Z,41.70
2022-08-10T17:12:58.522Z,42.65
2022-08-10T17:15:58.109Z,42.64
2022-08-10T17:18:48.274Z,42.43
2022-08-10T17:21:51.484Z,42.19
2022-08-10T17:25:08.921Z,42.07
2022-08-10T17:28:05.030Z,42.47
2022-08-10T17:31:39.800Z,42.59
2022-08-10T17:34:23.742Z,41.63
2022-08-10T17:37:22.349Z,42.98
2022-08-10T17:40:19.342Z,43.23
2022-08-10T17:43:10.019Z,42.25
2022-08-10T17:46:00.197Z,43.02
2022-08-10T17:48:48.776Z,42.72
2022-08-10T17:51:43.539Z,44.05
2022-08-10T17:54:36.820Z,43.72
2022-08-10T17:57:27.012Z,44.00
2022-08-10T18:00:16.055Z,43.50
2022-08-10T18:03:05.420Z,45.08
2022-08-10T18:06:01.891Z,45.50
2022-08-10T18:09:01.201Z,45.68
2022-08-10T18:12:03.658Z,45.45
2022-08-10T18:15:05.256Z,45.94
2022-08-10T18:18:01.744Z,45.92
2022-08-10T18:21:12.960Z,45.95
2022-08-10T18:24:07.751Z,46.91
2022-08-10T18:26:57.587Z,48.12
2022-08-10T18:29:55.222Z,47.51
2022-08-10T18:32:56.417Z,46.95
2022-08-10T18:35:46.378Z,48.51
2022-08-10T18:38:38.434Z,48.37
2022-08-10T18:41:37.388Z,49.80
2022-08-10T18:44:36.102Z,48.69
2022-08-10T18:47:41.626Z,49.03
2022-08-10T18:50:54.400Z,50.28
2022-08-10T18:53:52.086Z,50.21
2022-08-10T18:56:57.998Z,50.67
2022-08-10T19:00:10.379Z,50.15
2022-08-10T19:03:31.582Z,51.03
2022-08-10T19:06:41.335Z,51.54
2022-08-10T19:09:55.105Z,51.71
2022-08-10T19:12:58.847Z,51.51
2022-08-10T19:16:15.007Z,51.31
2022-08-10T19:19:41.238Z,51.58
2022-08-10T19:23:05.741Z,52.05
2022-08-10T19:26:40.938Z,52.06
2022-08-10T19:30:11.891Z,52.42
2022-08-10T19:33:25.438Z,52.82
2022-08-10T19:36:38.379Z,52.31
2022-08-10T19:39:53.467Z,52.30
2022-08-10T19:42:59.477Z,52.25
2022-08-10T19:46:02.423Z,52.52
2022-08-10T19:49:31.149Z,51.71
2022-08-10T19:52:41.376Z,53.99
2022-08-10T19:55:47.120Z,53.20
2022-08-10T19:58:54.003Z,53.82
2022-08-10T20:01:54.511Z,53.79
2022-08-10T20:05:10.151Z,53.46
2022-08-10T20:08:19.781Z,52.76
2022-08-10T20:11:44.705Z,54.26
2022-08-10T20:14:42.839Z,54.53
2022-08-10T20:17:45.116Z,54.32
2022-08-10T20:21:25.661Z,53.96
2022-08-10T20:24:45.373Z,56.89
2022-08-10T20:28:05.794Z,57.31
2022-08-10T20:31:17.135Z,58.77
2022-08-10T20:34:16.993Z,59.01
2022-08-10T20:37:44.986Z,58.80
2022-08-10T20:40:48.547Z,60.31
2022-08-10T20:44:17.375Z,60.19
2022-08-10T20:47:18.788Z,60.18
2022-08-10T20:50:37.234Z,60.98
2022-08-10T20:53:29.584Z,61.42
2022-08-10T20:56:48.361Z,59.96
2022-08-10T21:00:04.527Z,61.30
2022-08-10T21:03:07.543Z,61.28
2022-08-10T21:06:43.161Z,58.47
2022-08-10T21:09:47.109Z,61.71
2022-08-10T21:13:11.978Z,62.09
2022-08-10T21:16:47.438Z,62.03
2022-08-10T21:19:53.891Z,60.07
2022-08-10T21:22:49.562Z,61.68
2022-08-10T21:25:58.962Z,61.95
2022-08-10T21:29:01.799Z,60.76
2022-08-10T21:32:23.371Z,62.22
2022-08-10T21:35:15.540Z,62.83
2022-08-10T21:38:54.091Z,62.28
2022-08-10T21:42:31.969Z,63.09
2022-08-10T21:45:57.840Z,62.18
2022-08-10T21:49:36.907Z,63.95
2022-08-10T21:53:00.838Z,63.57
2022-08-10T21:56:24.926Z,62.80
2022-08-10T22:00:23.909Z,61.88
2022-08-10T22:03:40.169Z,65.06
2022-08-10T22:06:58.340Z,62.89
2022-08-10T22:10:08.357Z,64.32
2022-08-10T22:13:21.713Z,65.08
2022-08-10T22:17:06.887Z,65.95
2022-08-10T22:20:49.738Z,66.18
2022-08-10T22:24:19.601Z,66.71
2022-08-10T22:27:55.389Z,66.34
2022-08-10T22:31:31.617Z,64.98
2022-08-10T22:35:12.993Z,66.65
2022-08-10T22:40:10.203Z,66.87
2022-08-10T22:43:11.058Z,66.49
2022-08-10T22:46:22.928Z,68.88
2022-08-10T22:49:12.115Z,69.43
2022-08-10T22:52:17.229Z,68.74
2022-08-10T22:55:32.296Z,68.31
2022-08-10T22:58:39.219Z,69.13
2022-08-10T23:01:40.907Z,69.34
2022-08-10T23:04:35.909Z,69.41
2022-08-10T23:07:29.817Z,68.99
2022-08-10T23:10:21.565Z,69.58
2022-08-10T23:13:14.250Z,68.51
2022-08-10T23:16:46.371Z,69.17
2022-08-10T23:20:15.777Z,69.98
2022-08-10T23:23:10.147Z,66.95
2022-08-10T23:26:00.734Z,67.61
2022-08-10T23:28:58.257Z,67.81
2022-08-10T23:32:08.406Z,67.38
2022-08-10T23:36:04.315Z,66.81
2022-08-10T23:38:09.403Z,66.21
2022-08-10T23:41:02.683Z,66.23
2022-08-10T23:44:04.813Z,67.72
2022-08-10T23:46:53.827Z,66.09
2022-08-10T23:49:44.728Z,66.05
2022-08-10T23:52:34.726Z,69.19
2022-08-10T23:55:31.259Z,70.99
2022-08-10T23:58:35.504Z,70.93
